Portada
METAR-TAF:

METAR-TAF

Aeropuertos :

Asaluyeh, Irán

latitud: 27-22-46N, longitud: 52-44-15E, altitud: 8 m

Observación

El informe se hizo hace 33 minutos, a las 05:00 UTC
Viento calma
Temperatura 24°C
Humedad 65%
Presión 1011 hPa
Visibilidad: 6000 m

METAR: OIBP 240500Z 00000KT 6000 NSC 24/17 Q1010 A2984

Hora: 10:03 (05:33 UTC)


TAF: falta

Observaciones y pronósticos meteorológicos de más de 4000 aeropuertos (mensajes METAR y TAF).

Los puntos amarillos y rojos representan las estaciones disponibles.

Ponga el ratón en el punto deseado para ver el nombre de la estación.

Haga clic para ver las observaciones y los pronósticos meteorológicos.

Para cambiar el mapa : haga clic en los botones verdes con una cruz de color negro para hacer un zoom, en el botón verde con un guión para alejar o en las flechas verdes para mapas adyacentes.


METAR-TAF: